Time;durP1;ratioP1;P1;durP2;ratioP2;P2;SDS_P1;SDS_P2;PMS_P1;PMS_P2;Temp;Humidity;BMP_temperature;BMP_pressure;BME280_temperature;BME280_humidity;BME280_pressure;Samples;Min_cycle;Max_cycle;Signal;HPM_P1;HPM_P2
2021/06/21 00:00:10;;;;;;;25.53;7.70;;;24.60;70.10;;;;;;5065002;28;20225;-70
2021/06/21 00:02:38;;;;;;;25.33;7.00;;;24.60;70.00;;;;;;5066725;28;20221;-70
2021/06/21 00:05:07;;;;;;;28.87;7.07;;;24.60;70.00;;;;;;5065339;28;20214;-70
2021/06/21 00:07:34;;;;;;;36.73;7.93;;;24.60;70.00;;;;;;5063504;28;20230;-70
2021/06/21 00:10:01;;;;;;;22.77;7.40;;;24.60;70.00;;;;;;5064281;28;20217;-70
2021/06/21 00:12:28;;;;;;;25.70;7.07;;;24.60;70.20;;;;;;5064710;28;20619;-70
2021/06/21 00:14:55;;;;;;;20.37;6.53;;;24.60;70.20;;;;;;5066657;28;20206;-70
2021/06/21 00:17:22;;;;;;;27.40;6.73;;;24.60;70.30;;;;;;5064739;28;20222;-70
2021/06/21 00:19:49;;;;;;;22.97;6.90;;;24.50;70.20;;;;;;5064264;28;20658;-70
2021/06/21 00:22:18;;;;;;;22.93;7.20;;;24.50;70.60;;;;;;5066376;28;20287;-70
2021/06/21 00:24:45;;;;;;;21.57;8.07;;;24.50;70.90;;;;;;5065444;28;20604;-70
2021/06/21 00:27:13;;;;;;;26.90;7.10;;;24.50;70.90;;;;;;5068357;28;20213;-70
2021/06/21 00:29:41;;;;;;;26.13;7.60;;;24.50;70.90;;;;;;5067069;28;20267;-70
2021/06/21 00:32:09;;;;;;;30.40;8.17;;;24.50;70.90;;;;;;5067596;28;20237;-70
2021/06/21 00:34:36;;;;;;;36.43;9.07;;;24.50;70.90;;;;;;5066684;28;20290;-70
2021/06/21 00:37:03;;;;;;;32.67;7.83;;;24.40;70.60;;;;;;5067908;28;20202;-70
2021/06/21 00:39:30;;;;;;;25.80;6.90;;;24.30;70.40;;;;;;5065961;28;20214;-70
2021/06/21 00:41:58;;;;;;;25.73;7.93;;;24.30;70.50;;;;;;5054422;28;20605;-70
2021/06/21 00:44:25;;;;;;;27.27;7.73;;;24.30;70.60;;;;;;5063854;28;20210;-70
2021/06/21 00:46:52;;;;;;;34.43;7.73;;;24.20;70.60;;;;;;5063361;28;20214;-70
2021/06/21 00:49:20;;;;;;;31.50;8.03;;;24.20;70.50;;;;;;5065484;28;20237;-70
2021/06/21 00:51:47;;;;;;;28.23;7.07;;;24.30;70.50;;;;;;5062027;28;20263;-70
2021/06/21 00:54:14;;;;;;;31.83;8.37;;;24.30;70.20;;;;;;5065715;28;20527;-70
2021/06/21 00:56:42;;;;;;;48.73;8.03;;;24.30;69.70;;;;;;5060292;28;20717;-70
2021/06/21 00:59:09;;;;;;;34.40;7.73;;;24.40;69.30;;;;;;5061393;28;20218;-70
2021/06/21 01:01:36;;;;;;;28.23;7.03;;;24.40;69.10;;;;;;5069496;28;20300;-70
2021/06/21 01:04:03;;;;;;;24.03;6.63;;;24.40;69.10;;;;;;5065601;28;20578;-70
2021/06/21 01:06:30;;;;;;;30.73;7.77;;;24.40;69.40;;;;;;5060734;28;20628;-70
2021/06/21 01:08:57;;;;;;;26.23;7.03;;;24.30;69.50;;;;;;5065324;28;20291;-70
2021/06/21 01:11:54;;;;;;;21.37;6.87;;;24.30;69.50;;;;;;5064214;28;20206;-70
2021/06/21 01:14:31;;;;;;;32.97;7.27;;;24.20;69.70;;;;;;5065505;28;20229;-70
2021/06/21 01:17:10;;;;;;;25.63;7.23;;;24.20;69.90;;;;;;5065316;28;20210;-70
2021/06/21 01:20:08;;;;;;;27.07;6.50;;;24.10;69.90;;;;;;5063941;28;20288;-70
2021/06/21 01:23:12;;;;;;;25.20;7.20;;;24.10;70.20;;;;;;5061685;28;20264;-70
2021/06/21 01:25:53;;;;;;;23.43;7.40;;;24.10;69.90;;;;;;5064780;28;20260;-70
2021/06/21 01:28:43;;;;;;;24.17;7.40;;;24.00;70.10;;;;;;5060792;28;20237;-70
2021/06/21 01:31:21;;;;;;;24.43;7.33;;;24.00;70.30;;;;;;5064747;28;20697;-70
2021/06/21 01:33:50;;;;;;;28.87;7.67;;;23.90;70.30;;;;;;5065066;28;20267;-70
2021/06/21 01:36:19;;;;;;;23.10;8.10;;;23.90;70.60;;;;;;5065098;28;20620;-70
2021/06/21 01:38:54;;;;;;;28.60;7.43;;;23.90;70.80;;;;;;5063707;28;20213;-70
2021/06/21 01:41:44;;;;;;;37.13;8.70;;;23.80;70.90;;;;;;5064670;28;20213;-70
2021/06/21 01:44:14;;;;;;;27.53;8.10;;;23.70;71.30;;;;;;5062824;28;20222;-70
2021/06/21 01:46:42;;;;;;;32.23;8.20;;;23.70;71.20;;;;;;5062410;28;20222;-70
2021/06/21 01:49:25;;;;;;;27.67;8.30;;;23.70;71.30;;;;;;5063880;28;20237;-70
2021/06/21 01:52:00;;;;;;;33.77;8.20;;;23.70;71.70;;;;;;5062205;28;20636;-70
2021/06/21 01:54:29;;;;;;;33.50;9.10;;;23.70;71.80;;;;;;5061885;28;20222;-70
2021/06/21 01:56:58;;;;;;;28.27;7.80;;;23.60;71.70;;;;;;5057676;28;20218;-70
2021/06/21 01:59:28;;;;;;;23.00;8.30;;;23.50;71.90;;;;;;5064369;28;20206;-70
2021/06/21 02:02:01;;;;;;;24.60;7.97;;;23.50;72.20;;;;;;5063331;28;20217;-70
2021/06/21 02:04:32;;;;;;;36.13;8.63;;;23.50;72.50;;;;;;5063729;28;20663;-70
2021/06/21 02:07:01;;;;;;;28.50;8.07;;;23.50;72.60;;;;;;5062770;28;20239;-70
2021/06/21 02:09:29;;;;;;;22.87;8.40;;;23.40;72.80;;;;;;5060489;28;20237;-70
2021/06/21 02:11:57;;;;;;;38.20;7.53;;;23.40;73.80;;;;;;5064607;28;20271;-70
2021/06/21 02:14:28;;;;;;;26.37;8.50;;;23.30;73.40;;;;;;5064503;28;20217;-70
2021/06/21 02:16:58;;;;;;;28.50;8.23;;;23.20;73.80;;;;;;5064199;28;20206;-70
2021/06/21 02:19:29;;;;;;;30.37;8.30;;;23.20;73.90;;;;;;5062340;28;20218;-70
2021/06/21 02:21:57;;;;;;;34.50;9.27;;;23.20;73.90;;;;;;5061492;28;20225;-70
2021/06/21 02:24:25;;;;;;;32.57;9.27;;;23.20;73.90;;;;;;5063707;28;20586;-70
2021/06/21 02:26:53;;;;;;;28.83;8.40;;;23.20;73.90;;;;;;5066510;28;20257;-70
2021/06/21 02:29:22;;;;;;;24.23;7.10;;;23.10;74.10;;;;;;5064776;28;20233;-70
2021/06/21 02:31:50;;;;;;;25.20;8.87;;;23.00;74.50;;;;;;5062991;28;20536;-69
2021/06/21 02:34:18;;;;;;;28.53;8.93;;;23.00;74.70;;;;;;5064380;28;20244;-69
2021/06/21 02:36:47;;;;;;;29.77;8.60;;;23.00;74.90;;;;;;5064839;28;20286;-69
2021/06/21 02:39:15;;;;;;;25.60;7.80;;;23.00;75.00;;;;;;5061395;28;20217;-69
2021/06/21 02:41:42;;;;;;;26.00;8.07;;;23.00;75.00;;;;;;5061521;28;20221;-69
2021/06/21 02:44:09;;;;;;;29.80;9.07;;;23.00;75.10;;;;;;5062936;28;20210;-69
2021/06/21 02:46:36;;;;;;;22.87;8.40;;;23.00;75.30;;;;;;5063820;28;20217;-69
2021/06/21 02:49:04;;;;;;;36.37;9.17;;;22.90;75.30;;;;;;5052679;28;20234;-69
2021/06/21 02:51:44;;;;;;;20.60;8.67;;;22.90;75.50;;;;;;5055854;28;20214;-69
2021/06/21 02:54:22;;;;;;;38.10;8.87;;;22.90;75.80;;;;;;5062217;28;20217;-69
2021/06/21 02:57:24;;;;;;;27.50;8.57;;;22.90;75.90;;;;;;5056093;28;20268;-69
2021/06/21 02:59:53;;;;;;;25.10;8.70;;;22.90;75.60;;;;;;5044189;28;20213;-69
2021/06/21 03:02:21;;;;;;;33.53;8.93;;;22.90;75.50;;;;;;5061689;28;20264;-69
2021/06/21 03:04:49;;;;;;;29.60;8.07;;;23.00;75.70;;;;;;5061920;28;20206;-69
2021/06/21 03:07:20;;;;;;;32.43;9.50;;;23.00;75.90;;;;;;5065133;28;20658;-69
2021/06/21 03:09:48;;;;;;;26.03;8.77;;;22.90;75.80;;;;;;5066578;28;20241;-69
2021/06/21 03:12:24;;;;;;;25.63;9.77;;;22.90;75.90;;;;;;5065018;28;20222;-69
2021/06/21 03:14:51;;;;;;;25.37;8.20;;;22.90;76.30;;;;;;5066041;28;20228;-69
2021/06/21 03:17:19;;;;;;;29.47;9.10;;;22.90;76.30;;;;;;5067624;28;20243;-70
2021/06/21 03:19:47;;;;;;;30.13;8.50;;;22.90;76.20;;;;;;5065608;28;20535;-70
2021/06/21 03:22:18;;;;;;;37.43;10.67;;;22.90;76.30;;;;;;5063233;28;20683;-70
2021/06/21 03:24:52;;;;;;;39.73;9.40;;;22.80;76.40;;;;;;5065130;28;20226;-70
2021/06/21 03:27:34;;;;;;;26.80;10.10;;;22.80;76.60;;;;;;5064775;28;20225;-70
2021/06/21 03:30:14;;;;;;;26.63;9.37;;;22.70;76.80;;;;;;5064253;28;20234;-70
2021/06/21 03:32:42;;;;;;;35.37;9.30;;;22.70;77.10;;;;;;5068233;28;20210;-70
2021/06/21 03:35:12;;;;;;;28.13;10.10;;;22.70;77.10;;;;;;5065470;28;20300;-70
2021/06/21 03:37:40;;;;;;;34.40;10.47;;;22.60;77.50;;;;;;5065994;28;20213;-70
2021/06/21 03:40:09;;;;;;;34.40;11.60;;;22.60;78.30;;;;;;5064201;28;20236;-70
2021/06/21 03:42:38;;;;;;;28.77;11.03;;;22.50;78.80;;;;;;5065004;28;20264;-70
2021/06/21 03:45:07;;;;;;;29.93;10.53;;;22.60;79.90;;;;;;5064772;28;20225;-70
2021/06/21 03:47:40;;;;;;;26.40;9.50;;;22.60;79.30;;;;;;5055525;28;20218;-70
2021/06/21 03:50:09;;;;;;;30.73;11.20;;;22.70;79.30;;;;;;5055548;28;20235;-70
2021/06/21 03:52:36;;;;;;;36.73;10.93;;;22.70;79.80;;;;;;5064563;28;20221;-70
2021/06/21 03:55:06;;;;;;;36.47;11.67;;;22.80;79.00;;;;;;5064396;28;20214;-70
2021/06/21 03:57:38;;;;;;;29.47;10.30;;;22.80;78.90;;;;;;5063731;28;20509;-70
2021/06/21 04:00:10;;;;;;;39.37;11.30;;;22.80;78.90;;;;;;5065150;28;20279;-70
2021/06/21 04:02:37;;;;;;;33.00;11.43;;;22.80;79.10;;;;;;5066553;28;20617;-70
2021/06/21 04:05:05;;;;;;;33.10;13.47;;;22.90;79.20;;;;;;5065135;28;20864;-70
2021/06/21 04:07:32;;;;;;;29.93;11.67;;;22.90;79.40;;;;;;5067171;28;20205;-70
2021/06/21 04:10:00;;;;;;;27.50;11.80;;;22.90;79.60;;;;;;5062685;28;20238;-70
2021/06/21 04:12:29;;;;;;;27.40;12.73;;;22.90;80.00;;;;;;5064869;28;20206;-70
2021/06/21 04:14:56;;;;;;;28.90;13.87;;;22.90;80.20;;;;;;5066613;28;20210;-70
2021/06/21 04:17:23;;;;;;;31.87;13.43;;;22.90;80.40;;;;;;5067777;28;20216;-70
2021/06/21 04:19:50;;;;;;;28.97;13.30;;;22.90;80.60;;;;;;5067663;28;20218;-70
2021/06/21 04:22:18;;;;;;;26.23;13.00;;;23.00;80.80;;;;;;5063553;28;20217;-70
2021/06/21 04:24:45;;;;;;;28.47;12.97;;;23.00;80.90;;;;;;5065058;28;20256;-70
2021/06/21 04:27:13;;;;;;;30.53;12.87;;;23.00;80.90;;;;;;5062488;28;20532;-70
2021/06/21 04:29:40;;;;;;;29.77;11.77;;;23.10;80.90;;;;;;5063571;28;20244;-70
2021/06/21 04:32:07;;;;;;;30.80;12.73;;;23.10;80.90;;;;;;5065480;28;20211;-70
2021/06/21 04:34:35;;;;;;;35.67;13.37;;;23.10;80.90;;;;;;5066523;28;20229;-70
2021/06/21 04:37:03;;;;;;;26.63;12.73;;;23.20;81.00;;;;;;5066032;28;20217;-68
2021/06/21 04:39:30;;;;;;;29.60;13.93;;;23.30;81.00;;;;;;5065972;28;20556;-68
2021/06/21 04:41:57;;;;;;;27.93;14.63;;;23.40;81.30;;;;;;5054595;28;20214;-68
2021/06/21 04:44:25;;;;;;;23.27;14.43;;;23.50;81.20;;;;;;5054562;28;20219;-68
2021/06/21 04:46:52;;;;;;;31.23;14.97;;;23.60;81.20;;;;;;5054461;28;20225;-68
2021/06/21 04:49:19;;;;;;;27.63;15.70;;;23.70;81.00;;;;;;5054401;28;20234;-68
2021/06/21 04:51:46;;;;;;;33.93;15.77;;;23.80;80.70;;;;;;5054528;28;20218;-68
2021/06/21 04:54:14;;;;;;;32.00;16.93;;;24.00;80.60;;;;;;5055170;28;20283;-68
2021/06/21 04:56:41;;;;;;;32.80;19.00;;;24.10;80.80;;;;;;5062404;28;20632;-68
2021/06/21 04:59:08;;;;;;;28.83;19.90;;;24.20;80.80;;;;;;5063416;28;20284;-68
2021/06/21 05:01:35;;;;;;;34.27;21.23;;;24.20;81.20;;;;;;5066437;28;20218;-68
2021/06/21 05:04:04;;;;;;;35.00;23.87;;;24.30;81.60;;;;;;5066770;28;20210;-68
2021/06/21 05:06:36;;;;;;;34.33;22.50;;;24.40;82.00;;;;;;5062777;28;20210;-68
2021/06/21 05:09:05;;;;;;;33.97;23.03;;;24.50;82.20;;;;;;5066889;28;20375;-68
2021/06/21 05:11:32;;;;;;;32.03;21.73;;;24.70;82.10;;;;;;5064863;28;20209;-68
2021/06/21 05:14:00;;;;;;;31.53;23.53;;;24.90;81.80;;;;;;5063378;28;20264;-68
2021/06/21 05:16:28;;;;;;;32.37;22.13;;;25.00;81.50;;;;;;5063673;28;20210;-68
2021/06/21 05:18:55;;;;;;;30.87;22.93;;;25.20;81.00;;;;;;5065253;28;20210;-67
2021/06/21 05:21:22;;;;;;;29.07;22.40;;;25.40;80.80;;;;;;5063227;28;20233;-67
2021/06/21 05:23:49;;;;;;;27.97;21.70;;;25.60;80.40;;;;;;5063259;28;20513;-67
2021/06/21 05:26:16;;;;;;;30.27;22.30;;;25.80;80.10;;;;;;5063019;28;20214;-67
2021/06/21 05:28:43;;;;;;;27.90;20.27;;;26.00;79.70;;;;;;5059811;28;20234;-67
2021/06/21 05:31:10;;;;;;;29.33;22.43;;;26.20;79.10;;;;;;5062284;28;20581;-67
2021/06/21 05:33:37;;;;;;;28.10;20.70;;;26.30;78.30;;;;;;5062498;28;20218;-69
2021/06/21 05:36:04;;;;;;;26.63;19.70;;;26.50;78.10;;;;;;5065396;28;20241;-70
2021/06/21 05:38:32;;;;;;;32.33;20.80;;;26.60;77.50;;;;;;5063982;28;20648;-70
2021/06/21 05:40:59;;;;;;;30.90;21.07;;;26.90;77.10;;;;;;5061889;28;20214;-70
2021/06/21 05:43:26;;;;;;;24.03;18.73;;;27.00;76.70;;;;;;5063009;28;20273;-70
2021/06/21 05:45:53;;;;;;;27.83;19.53;;;27.20;76.30;;;;;;5064778;28;20210;-70
2021/06/21 05:48:21;;;;;;;31.13;20.20;;;27.30;75.90;;;;;;5063116;28;20214;-70
2021/06/21 05:50:49;;;;;;;29.07;19.70;;;27.50;75.60;;;;;;5062524;28;20596;-70
2021/06/21 05:53:17;;;;;;;26.83;20.07;;;27.60;75.10;;;;;;5064564;28;20247;-70
2021/06/21 05:55:44;;;;;;;30.60;20.00;;;27.70;74.70;;;;;;5063281;28;20222;-70
2021/06/21 05:58:11;;;;;;;32.70;19.80;;;27.80;74.40;;;;;;5058077;28;20206;-70
2021/06/21 06:00:38;;;;;;;27.30;19.50;;;27.90;74.00;;;;;;5062204;28;20229;-70
2021/06/21 06:03:05;;;;;;;29.87;20.40;;;28.10;73.60;;;;;;5062820;28;20221;-70
2021/06/21 06:05:32;;;;;;;28.30;20.67;;;28.20;73.20;;;;;;5060875;28;20207;-70
2021/06/21 06:07:59;;;;;;;26.47;20.17;;;28.20;72.70;;;;;;5065083;28;20209;-70
2021/06/21 06:10:26;;;;;;;26.30;19.80;;;28.30;72.60;;;;;;5063770;28;20234;-70
2021/06/21 06:12:53;;;;;;;26.40;18.80;;;28.40;72.30;;;;;;5061655;28;20244;-70
2021/06/21 06:15:20;;;;;;;34.40;21.00;;;28.50;72.00;;;;;;5063449;28;20885;-70
2021/06/21 06:17:48;;;;;;;22.87;18.93;;;28.70;71.90;;;;;;5063292;28;20206;-70
2021/06/21 06:20:15;;;;;;;29.17;18.23;;;28.80;71.50;;;;;;5065227;28;20214;-70
2021/06/21 06:22:43;;;;;;;21.03;17.27;;;28.90;71.00;;;;;;5066480;28;20279;-70
2021/06/21 06:25:10;;;;;;;29.37;17.43;;;29.00;70.60;;;;;;5064084;28;20209;-70
2021/06/21 06:27:38;;;;;;;28.43;17.80;;;29.10;70.40;;;;;;5058374;28;20226;-70
2021/06/21 06:30:07;;;;;;;31.50;19.03;;;29.30;69.70;;;;;;5061602;28;20276;-70
2021/06/21 06:32:35;;;;;;;37.10;18.67;;;29.40;69.40;;;;;;5060837;28;20267;-70
2021/06/21 06:35:03;;;;;;;24.50;17.97;;;29.50;68.60;;;;;;5064032;28;20238;-70
2021/06/21 06:37:30;;;;;;;20.10;16.33;;;29.60;68.60;;;;;;5064053;28;20209;-70
2021/06/21 06:39:57;;;;;;;25.27;17.70;;;29.70;68.30;;;;;;5062090;28;20581;-70
2021/06/21 06:42:24;;;;;;;23.50;17.70;;;29.80;68.30;;;;;;5065851;28;20211;-70
2021/06/21 06:44:51;;;;;;;28.90;17.47;;;30.00;67.90;;;;;;5063431;28;20259;-70
2021/06/21 06:47:19;;;;;;;24.87;17.43;;;30.10;67.80;;;;;;5067492;28;20229;-70
2021/06/21 06:49:45;;;;;;;26.13;17.33;;;30.30;67.60;;;;;;5067498;28;20233;-70
2021/06/21 06:52:16;;;;;;;27.73;16.77;;;30.40;67.20;;;;;;5065375;28;20218;-70
2021/06/21 06:56:57;;;;;;;25.53;16.53;;;30.60;66.80;;;;;;5066643;28;20286;-70
2021/06/21 06:57:38;;;;;;;24.67;15.07;;;30.70;66.00;;;;;;5064190;28;21014;-71
2021/06/21 07:00:11;;;;;;;20.90;16.27;;;30.90;65.70;;;;;;5064141;28;20248;-71
2021/06/21 07:02:41;;;;;;;24.77;16.40;;;31.00;65.40;;;;;;5068379;28;20810;-71
2021/06/21 07:05:09;;;;;;;19.90;16.43;;;31.10;64.90;;;;;;5068417;28;20222;-71
2021/06/21 07:07:36;;;;;;;23.37;15.80;;;31.20;64.60;;;;;;5068434;28;20217;-71
2021/06/21 07:10:04;;;;;;;30.63;14.07;;;31.30;64.50;;;;;;5069145;28;20234;-70
2021/06/21 07:12:31;;;;;;;20.83;15.27;;;31.50;64.60;;;;;;5065707;28;20221;-70
2021/06/21 07:14:58;;;;;;;22.83;15.00;;;31.60;64.10;;;;;;5065432;28;20252;-70
2021/06/21 07:17:25;;;;;;;19.17;14.33;;;31.70;63.60;;;;;;5068090;28;20560;-70
2021/06/21 07:19:52;;;;;;;25.17;14.83;;;31.80;63.20;;;;;;5066744;28;20214;-71
2021/06/21 07:22:19;;;;;;;25.73;13.53;;;32.00;63.10;;;;;;5064639;28;20646;-70
2021/06/21 07:24:46;;;;;;;25.70;12.30;;;32.10;62.10;;;;;;5065625;28;20218;-70
2021/06/21 07:27:13;;;;;;;23.00;14.07;;;32.20;61.80;;;;;;5064797;28;20950;-71
2021/06/21 07:29:40;;;;;;;17.43;12.90;;;32.30;61.10;;;;;;5062436;28;20237;-70
2021/06/21 07:32:07;;;;;;;18.63;12.77;;;32.30;60.90;;;;;;5067684;28;20205;-70
2021/06/21 07:34:36;;;;;;;20.97;12.87;;;32.50;61.90;;;;;;5069526;28;20311;-70
2021/06/21 07:37:03;;;;;;;16.23;11.83;;;32.60;60.80;;;;;;5055940;28;20210;-70
2021/06/21 07:39:30;;;;;;;20.67;11.30;;;32.70;60.30;;;;;;5057733;28;20209;-70
2021/06/21 07:41:57;;;;;;;16.80;10.53;;;32.80;59.50;;;;;;5063497;28;20223;-70
2021/06/21 07:44:24;;;;;;;18.47;10.93;;;32.90;59.20;;;;;;5065444;28;20225;-71
2021/06/21 07:46:52;;;;;;;21.87;10.87;;;33.00;59.20;;;;;;5061662;28;20284;-70
2021/06/21 07:49:19;;;;;;;22.60;9.93;;;33.20;58.70;;;;;;5066626;28;20218;-70
2021/06/21 07:51:46;;;;;;;21.40;9.93;;;33.30;58.30;;;;;;5065121;28;20662;-70
2021/06/21 07:54:14;;;;;;;17.63;10.00;;;33.30;57.80;;;;;;5067521;28;20213;-71
2021/06/21 07:56:41;;;;;;;21.57;9.13;;;33.40;57.70;;;;;;5064342;28;20221;-71
2021/06/21 07:59:08;;;;;;;19.37;10.90;;;33.50;57.30;;;;;;5064766;28;20213;-71
2021/06/21 08:01:38;;;;;;;19.30;8.93;;;33.70;56.90;;;;;;5062874;28;20225;-70
2021/06/21 08:04:06;;;;;;;18.80;8.93;;;33.70;56.80;;;;;;5066029;28;20870;-70
2021/06/21 08:06:34;;;;;;;17.20;9.43;;;33.80;56.50;;;;;;5066282;28;20236;-70
2021/06/21 08:09:01;;;;;;;21.50;10.80;;;33.90;56.30;;;;;;5066599;28;20252;-70
2021/06/21 08:11:28;;;;;;;17.40;9.63;;;33.90;55.60;;;;;;5063563;28;20272;-70
2021/06/21 08:13:55;;;;;;;24.47;9.37;;;34.00;55.90;;;;;;5063581;28;20627;-70
2021/06/21 08:16:23;;;;;;;22.10;8.73;;;34.20;55.60;;;;;;5060181;28;20226;-70
2021/06/21 08:18:50;;;;;;;20.70;10.30;;;34.20;55.00;;;;;;5064916;28;20252;-70
2021/06/21 08:21:17;;;;;;;21.20;7.73;;;34.30;53.30;;;;;;5063417;28;20214;-70
2021/06/21 08:23:44;;;;;;;20.10;9.37;;;34.30;53.80;;;;;;5069075;28;20514;-70
2021/06/21 08:26:12;;;;;;;20.07;8.73;;;34.30;53.80;;;;;;5065316;28;20275;-70
2021/06/21 08:28:39;;;;;;;19.27;8.70;;;34.30;53.80;;;;;;5063602;28;21336;-70
2021/06/21 08:31:06;;;;;;;21.53;10.00;;;34.30;53.90;;;;;;5065204;28;20650;-70
2021/06/21 08:33:33;;;;;;;17.23;8.47;;;34.40;53.60;;;;;;5068221;28;20208;-70
2021/06/21 08:36:01;;;;;;;16.60;7.60;;;34.40;53.10;;;;;;5063485;28;20238;-70
2021/06/21 08:38:29;;;;;;;21.27;7.17;;;34.50;52.40;;;;;;5064780;28;20210;-70
2021/06/21 08:40:56;;;;;;;22.60;8.43;;;34.40;51.80;;;;;;5062302;28;20682;-70
2021/06/21 08:43:24;;;;;;;25.17;7.50;;;34.30;52.40;;;;;;5065803;28;20221;-70
2021/06/21 08:45:50;;;;;;;24.67;6.87;;;34.40;52.50;;;;;;5062296;28;20226;-70
2021/06/21 08:48:19;;;;;;;25.13;7.50;;;34.60;51.80;;;;;;5064646;28;20659;-70
2021/06/21 08:50:46;;;;;;;20.77;8.07;;;34.70;50.90;;;;;;5065010;28;20238;-70
2021/06/21 08:53:13;;;;;;;17.07;7.80;;;34.70;51.00;;;;;;5065685;28;20237;-70
2021/06/21 08:55:40;;;;;;;22.17;7.47;;;34.90;51.20;;;;;;5054186;28;20214;-70
2021/06/21 08:58:08;;;;;;;23.10;8.23;;;35.10;51.50;;;;;;5054399;28;20620;-70
2021/06/21 09:00:35;;;;;;;16.47;6.73;;;35.30;51.20;;;;;;5054120;28;20631;-70
2021/06/21 09:03:03;;;;;;;21.80;6.97;;;35.40;49.20;;;;;;5062829;28;20756;-70
2021/06/21 09:05:34;;;;;;;24.63;7.37;;;35.50;49.30;;;;;;5062678;28;20222;-70
2021/06/21 09:08:06;;;;;;;21.00;7.03;;;35.60;48.20;;;;;;5060367;28;20220;-70
2021/06/21 09:10:37;;;;;;;20.37;7.53;;;35.70;47.70;;;;;;5063548;28;20245;-70
2021/06/21 09:13:13;;;;;;;22.10;7.90;;;35.60;47.10;;;;;;5061664;28;20663;-70
2021/06/21 09:15:50;;;;;;;26.83;7.53;;;35.50;48.60;;;;;;5065312;28;20223;-70
2021/06/21 09:18:33;;;;;;;19.53;6.97;;;35.60;49.00;;;;;;5063531;28;20237;-70
2021/06/21 09:21:27;;;;;;;25.87;8.10;;;35.70;47.70;;;;;;5064392;28;20643;-70
2021/06/21 09:24:15;;;;;;;17.97;7.77;;;35.80;47.80;;;;;;5063448;28;20214;-71
2021/06/21 09:26:44;;;;;;;16.13;6.73;;;35.90;47.30;;;;;;5062459;28;20225;-70
2021/06/21 09:29:11;;;;;;;17.27;6.10;;;36.00;46.50;;;;;;5063647;28;20206;-70
2021/06/21 09:31:56;;;;;;;16.13;7.20;;;35.90;46.40;;;;;;5061157;28;20280;-70
2021/06/21 09:34:25;;;;;;;28.00;8.20;;;35.90;46.50;;;;;;5064657;28;20606;-70
2021/06/21 09:36:54;;;;;;;27.63;7.47;;;35.80;46.40;;;;;;5062909;28;20206;-70
2021/06/21 09:39:22;;;;;;;26.80;7.60;;;35.80;47.10;;;;;;5065862;28;20209;-70
2021/06/21 09:42:10;;;;;;;17.80;7.40;;;35.90;47.60;;;;;;5061205;28;20218;-70
2021/06/21 09:44:41;;;;;;;19.20;6.70;;;36.10;47.20;;;;;;5062387;28;20220;-70
2021/06/21 09:47:15;;;;;;;20.53;6.67;;;36.20;46.70;;;;;;5062685;28;20224;-70
2021/06/21 09:50:07;;;;;;;21.60;7.53;;;36.30;46.50;;;;;;5062539;28;20654;-70
2021/06/21 09:52:51;;;;;;;21.60;7.03;;;36.30;44.70;;;;;;5063735;28;20647;-70
2021/06/21 09:55:20;;;;;;;17.17;6.30;;;36.20;45.30;;;;;;5063600;28;20581;-70
2021/06/21 09:57:59;;;;;;;22.93;7.20;;;36.20;46.30;;;;;;5061908;28;20218;-70
2021/06/21 10:00:27;;;;;;;21.63;6.73;;;36.20;46.50;;;;;;5059194;28;20241;-70
2021/06/21 10:03:26;;;;;;;26.37;6.80;;;36.30;46.10;;;;;;5062075;28;20674;-71
2021/06/21 10:06:09;;;;;;;21.80;6.07;;;36.40;46.30;;;;;;5064168;28;20213;-70
2021/06/21 10:08:52;;;;;;;20.23;7.20;;;36.30;45.80;;;;;;5065500;28;20205;-70
2021/06/21 10:11:32;;;;;;;25.87;7.30;;;36.40;45.30;;;;;;5061004;28;20241;-70
2021/06/21 10:14:08;;;;;;;32.57;7.40;;;36.40;46.00;;;;;;5062898;28;20214;-70
2021/06/21 10:16:37;;;;;;;25.47;6.90;;;36.50;45.30;;;;;;5052861;28;20210;-70
2021/06/21 10:19:09;;;;;;;15.67;6.33;;;36.70;45.10;;;;;;5053092;28;20647;-70
2021/06/21 10:21:41;;;;;;;23.53;6.83;;;36.90;45.50;;;;;;5053081;28;20559;-70
2021/06/21 10:24:09;;;;;;;28.93;7.53;;;37.00;44.50;;;;;;5053052;28;20210;-70
2021/06/21 10:26:41;;;;;;;17.90;6.43;;;37.10;43.50;;;;;;5043797;28;20207;-70
2021/06/21 10:29:08;;;;;;;25.33;6.90;;;37.10;42.80;;;;;;5048201;28;20211;-70
2021/06/21 10:31:35;;;;;;;25.23;6.80;;;37.20;43.50;;;;;;5048532;28;20234;-70
2021/06/21 10:34:06;;;;;;;20.83;6.97;;;37.30;43.40;;;;;;5051815;28;20222;-70
2021/06/21 10:36:43;;;;;;;20.50;7.07;;;37.10;43.20;;;;;;5044671;28;20211;-70
2021/06/21 10:39:19;;;;;;;25.97;8.03;;;37.10;43.90;;;;;;5044850;28;20214;-70
2021/06/21 10:42:06;;;;;;;18.47;6.80;;;36.90;43.80;;;;;;5042584;28;20889;-70
2021/06/21 10:44:56;;;;;;;18.50;7.30;;;36.70;44.50;;;;;;5037113;28;20218;-70
2021/06/21 10:47:27;;;;;;;22.83;7.37;;;36.70;44.30;;;;;;5044177;28;20558;-70
2021/06/21 10:50:03;;;;;;;19.87;6.50;;;36.70;43.90;;;;;;5040417;28;20304;-69
2021/06/21 10:52:36;;;;;;;25.07;7.27;;;36.50;43.80;;;;;;5042715;28;20203;-70
2021/06/21 10:55:25;;;;;;;22.17;7.20;;;36.50;44.30;;;;;;5041262;28;20215;-70
2021/06/21 10:58:04;;;;;;;28.07;7.13;;;36.60;44.10;;;;;;5041688;28;20273;-70
2021/06/21 11:00:34;;;;;;;32.40;6.90;;;36.60;42.80;;;;;;5045037;28;20705;-70
2021/06/21 11:03:04;;;;;;;22.27;6.10;;;36.40;42.40;;;;;;5041675;28;20231;-70
2021/06/21 11:05:37;;;;;;;22.87;7.40;;;36.20;42.60;;;;;;5044992;28;20301;-70
2021/06/21 11:08:20;;;;;;;18.63;6.27;;;36.10;42.70;;;;;;5041780;28;20636;-70
2021/06/21 11:10:49;;;;;;;26.40;7.33;;;36.10;43.70;;;;;;5042167;28;20235;-70
2021/06/21 11:13:34;;;;;;;18.23;7.10;;;36.10;43.30;;;;;;5042981;28;20241;-70
2021/06/21 11:16:19;;;;;;;23.80;7.17;;;36.00;43.40;;;;;;5040932;28;20211;-70
2021/06/21 11:19:22;;;;;;;18.07;6.67;;;36.10;43.50;;;;;;5039999;28;20211;-70
2021/06/21 11:21:54;;;;;;;19.83;6.47;;;36.10;43.20;;;;;;5043223;28;20226;-70
2021/06/21 11:24:36;;;;;;;21.43;7.30;;;36.20;43.40;;;;;;5040016;28;20704;-70
2021/06/21 11:27:12;;;;;;;22.83;7.60;;;36.20;44.20;;;;;;5041143;28;20272;-70
2021/06/21 11:29:44;;;;;;;18.60;6.87;;;36.20;43.90;;;;;;5049405;28;20198;-70
2021/06/21 11:32:13;;;;;;;20.33;6.87;;;36.20;43.30;;;;;;5044849;28;20292;-70
2021/06/21 11:34:56;;;;;;;29.57;7.03;;;35.90;42.80;;;;;;5051559;28;20245;-70
2021/06/21 11:37:51;;;;;;;25.97;7.10;;;35.70;42.60;;;;;;5044905;28;20215;-70
2021/06/21 11:40:27;;;;;;;26.73;8.03;;;35.50;42.90;;;;;;5046836;28;20211;-70
2021/06/21 11:42:57;;;;;;;23.53;7.43;;;35.20;43.70;;;;;;5044311;28;20211;-70
2021/06/21 11:45:46;;;;;;;23.43;6.73;;;34.70;44.00;;;;;;5044139;28;20269;-69
2021/06/21 11:48:32;;;;;;;26.63;6.93;;;34.40;45.10;;;;;;5048124;28;20265;-69
2021/06/21 11:51:17;;;;;;;21.53;6.70;;;34.40;45.80;;;;;;5044266;28;20325;-69
2021/06/21 11:53:47;;;;;;;27.63;7.97;;;34.60;44.60;;;;;;5046057;28;20582;-69
2021/06/21 11:56:21;;;;;;;28.17;8.30;;;34.80;44.20;;;;;;5047453;28;20214;-69
2021/06/21 11:58:54;;;;;;;30.13;7.93;;;34.90;44.00;;;;;;5044699;28;20210;-70
2021/06/21 12:01:24;;;;;;;26.57;7.20;;;34.80;42.50;;;;;;5049050;28;20272;-69
2021/06/21 12:04:00;;;;;;;26.37;6.73;;;34.50;44.00;;;;;;5045133;28;20217;-69
2021/06/21 12:06:30;;;;;;;23.50;7.83;;;34.20;45.20;;;;;;5059297;28;20218;-69
2021/06/21 12:08:57;;;;;;;30.73;7.87;;;34.30;44.50;;;;;;5043792;28;20294;-69
2021/06/21 12:11:27;;;;;;;24.00;7.40;;;34.40;44.20;;;;;;5035379;28;20738;-69
2021/06/21 12:13:59;;;;;;;27.00;7.57;;;34.60;42.80;;;;;;5034921;28;20211;-70
2021/06/21 12:16:28;;;;;;;29.90;7.43;;;34.80;43.30;;;;;;5035471;28;20225;-70
2021/06/21 12:18:58;;;;;;;26.47;7.57;;;35.00;43.70;;;;;;5043330;28;20222;-70
2021/06/21 12:21:32;;;;;;;38.83;8.90;;;35.30;43.10;;;;;;5035066;28;20296;-70
2021/06/21 12:24:25;;;;;;;26.03;7.70;;;35.60;41.20;;;;;;5035171;28;20628;-70
2021/06/21 12:26:55;;;;;;;25.70;6.63;;;35.70;41.20;;;;;;5034990;28;20594;-70
2021/06/21 12:29:24;;;;;;;29.53;7.57;;;35.80;41.60;;;;;;5042203;28;20213;-70
2021/06/21 12:32:01;;;;;;;29.37;7.17;;;35.90;40.30;;;;;;5046095;28;20238;-70
2021/06/21 12:34:53;;;;;;;24.57;6.93;;;35.90;40.70;;;;;;5050504;28;20230;-70
2021/06/21 12:37:26;;;;;;;26.17;7.30;;;35.90;40.10;;;;;;5046038;28;20259;-70
2021/06/21 12:40:15;;;;;;;24.90;7.27;;;36.10;40.60;;;;;;5047179;28;20211;-70
2021/06/21 12:42:44;;;;;;;28.90;7.70;;;36.20;41.30;;;;;;5044807;28;20222;-70
2021/06/21 12:45:15;;;;;;;27.30;7.73;;;36.40;41.20;;;;;;5045021;28;20642;-70
2021/06/21 12:47:50;;;;;;;30.67;7.70;;;36.50;41.00;;;;;;5045203;28;20608;-70
2021/06/21 12:50:19;;;;;;;30.77;6.37;;;36.60;40.40;;;;;;5044755;28;20207;-70
2021/06/21 12:52:50;;;;;;;25.77;6.83;;;36.50;40.30;;;;;;5044169;28;20224;-70